sensor_id;sensor_type;location;lat;lon;timestamp;pressure;altitude;pressure_sealevel;temperature;humidity
59043;BME280;44826;51.596;5.624;2023-04-10T00:00:23;102038.69;;;8.51;66.00
59043;BME280;44826;51.596;5.624;2023-04-10T00:02:48;102036.97;;;8.53;66.11
59043;BME280;44826;51.596;5.624;2023-04-10T00:05:14;102036.97;;;8.53;65.86
59043;BME280;44826;51.596;5.624;2023-04-10T00:07:40;102034.38;;;8.53;66.23
59043;BME280;44826;51.596;5.624;2023-04-10T00:10:05;102019.66;;;8.52;65.97
59043;BME280;44826;51.596;5.624;2023-04-10T00:12:31;102016.22;;;8.53;66.19
59043;BME280;44826;51.596;5.624;2023-04-10T00:14:56;102011.88;;;8.54;66.89
59043;BME280;44826;51.596;5.624;2023-04-10T00:17:22;102000.66;;;8.53;67.11
59043;BME280;44826;51.596;5.624;2023-04-10T00:19:47;102002.38;;;8.51;67.33
59043;BME280;44826;51.596;5.624;2023-04-10T00:22:13;101992.84;;;8.50;67.16
59043;BME280;44826;51.596;5.624;2023-04-10T00:24:38;101988.47;;;8.47;66.94
59043;BME280;44826;51.596;5.624;2023-04-10T00:27:03;101991.94;;;8.45;66.74
59043;BME280;44826;51.596;5.624;2023-04-10T00:29:28;101991.09;;;8.44;66.90
59043;BME280;44826;51.596;5.624;2023-04-10T00:31:54;101990.22;;;8.44;66.95
59043;BME280;44826;51.596;5.624;2023-04-10T00:34:19;101993.66;;;8.43;66.90
59043;BME280;44826;51.596;5.624;2023-04-10T00:36:45;101980.72;;;8.41;67.06
59043;BME280;44826;51.596;5.624;2023-04-10T00:39:13;101978.09;;;8.38;67.32
59043;BME280;44826;51.596;5.624;2023-04-10T00:41:38;101970.34;;;8.37;67.28
59043;BME280;44826;51.596;5.624;2023-04-10T00:44:04;101969.47;;;8.34;67.25
59043;BME280;44826;51.596;5.624;2023-04-10T00:46:30;101968.59;;;8.32;67.34
59043;BME280;44826;51.596;5.624;2023-04-10T00:48:56;101965.13;;;8.30;67.25
59043;BME280;44826;51.596;5.624;2023-04-10T00:51:21;101959.06;;;8.28;68.02
59043;BME280;44826;51.596;5.624;2023-04-10T00:53:48;101962.53;;;8.27;67.59
59043;BME280;44826;51.596;5.624;2023-04-10T00:56:17;101959.06;;;8.24;67.38
59043;BME280;44826;51.596;5.624;2023-04-10T00:58:43;101960.78;;;8.23;67.59
59043;BME280;44826;51.596;5.624;2023-04-10T01:01:08;101953.88;;;8.22;67.28
59043;BME280;44826;51.596;5.624;2023-04-10T01:03:34;101949.56;;;8.18;67.52
59043;BME280;44826;51.596;5.624;2023-04-10T01:06:11;101955.59;;;8.17;67.40
59043;BME280;44826;51.596;5.624;2023-04-10T01:08:56;101950.41;;;8.15;66.64
59043;BME280;44826;51.596;5.624;2023-04-10T01:14:26;101952.13;;;8.13;67.00
59043;BME280;44826;51.596;5.624;2023-04-10T01:17:06;101951.28;;;8.13;67.31
59043;BME280;44826;51.596;5.624;2023-04-10T01:25:45;101941.75;;;8.12;66.99
59043;BME280;44826;51.596;5.624;2023-04-10T01:30:46;101945.22;;;8.09;67.35
59043;BME280;44826;51.596;5.624;2023-04-10T01:33:15;101940.88;;;8.07;67.46
59043;BME280;44826;51.596;5.624;2023-04-10T01:35:43;101938.28;;;8.05;67.57
59043;BME280;44826;51.596;5.624;2023-04-10T01:38:12;101940.00;;;8.04;67.81
59043;BME280;44826;51.596;5.624;2023-04-10T01:40:41;101941.75;;;8.04;67.76
59043;BME280;44826;51.596;5.624;2023-04-10T01:43:13;101939.16;;;8.02;68.33
59043;BME280;44826;51.596;5.624;2023-04-10T01:45:39;101929.63;;;8.00;68.58
59043;BME280;44826;51.596;5.624;2023-04-10T01:48:07;101935.69;;;7.99;69.03
59043;BME280;44826;51.596;5.624;2023-04-10T01:50:34;101939.13;;;7.98;68.66
59043;BME280;44826;51.596;5.624;2023-04-10T01:53:01;101927.03;;;7.95;68.68
59043;BME280;44826;51.596;5.624;2023-04-10T01:55:28;101929.63;;;7.95;69.00
59043;BME280;44826;51.596;5.624;2023-04-10T01:57:53;101920.09;;;7.91;68.64
59043;BME280;44826;51.596;5.624;2023-04-10T02:00:19;101919.22;;;7.89;69.73
59043;BME280;44826;51.596;5.624;2023-04-10T02:02:45;101909.72;;;7.88;68.72
59043;BME280;44826;51.596;5.624;2023-04-10T02:05:10;101914.91;;;7.86;68.79
59043;BME280;44826;51.596;5.624;2023-04-10T02:07:41;101905.41;;;7.84;68.90
59043;BME280;44826;51.596;5.624;2023-04-10T02:13:06;101899.38;;;7.82;68.02
59043;BME280;44826;51.596;5.624;2023-04-10T02:15:33;101895.03;;;7.78;69.49
59043;BME280;44826;51.596;5.624;2023-04-10T02:18:02;101898.47;;;7.77;69.52
59043;BME280;44826;51.596;5.624;2023-04-10T02:20:31;101894.16;;;7.75;69.54
59043;BME280;44826;51.596;5.624;2023-04-10T02:22:57;101890.69;;;7.73;68.92
59043;BME280;44826;51.596;5.624;2023-04-10T02:25:30;101891.56;;;7.72;69.48
59043;BME280;44826;51.596;5.624;2023-04-10T02:27:55;101885.50;;;7.69;69.09
59043;BME280;44826;51.596;5.624;2023-04-10T02:30:21;101884.63;;;7.65;69.39
59043;BME280;44826;51.596;5.624;2023-04-10T02:32:46;101893.25;;;7.66;69.65
59043;BME280;44826;51.596;5.624;2023-04-10T02:35:11;101881.19;;;7.63;69.64
59043;BME280;44826;51.596;5.624;2023-04-10T02:37:36;101881.19;;;7.63;69.45
59043;BME280;44826;51.596;5.624;2023-04-10T02:40:02;101881.16;;;7.60;69.98
59043;BME280;44826;51.596;5.624;2023-04-10T02:42:27;101881.16;;;7.60;69.32
59043;BME280;44826;51.596;5.624;2023-04-10T02:44:52;101881.16;;;7.58;69.34
59043;BME280;44826;51.596;5.624;2023-04-10T02:47:18;101886.34;;;7.58;69.84
59043;BME280;44826;51.596;5.624;2023-04-10T02:49:43;101878.56;;;7.57;69.36
59043;BME280;44826;51.596;5.624;2023-04-10T02:52:08;101881.16;;;7.57;69.72
59043;BME280;44826;51.596;5.624;2023-04-10T02:54:34;101875.94;;;7.54;69.42
59043;BME280;44826;51.596;5.624;2023-04-10T02:56:59;101876.81;;;7.53;69.70
59043;BME280;44826;51.596;5.624;2023-04-10T02:59:25;101872.47;;;7.52;70.29
59043;BME280;44826;51.596;5.624;2023-04-10T03:01:51;101870.78;;;7.51;70.42
59043;BME280;44826;51.596;5.624;2023-04-10T03:04:17;101868.16;;;7.49;69.96
59043;BME280;44826;51.596;5.624;2023-04-10T03:06:43;101874.22;;;7.47;70.15
59043;BME280;44826;51.596;5.624;2023-04-10T03:09:08;101874.22;;;7.47;70.03
59043;BME280;44826;51.596;5.624;2023-04-10T03:11:34;101877.66;;;7.46;69.94
59043;BME280;44826;51.596;5.624;2023-04-10T03:13:59;101879.38;;;7.43;69.83
59043;BME280;44826;51.596;5.624;2023-04-10T03:16:25;101879.38;;;7.42;70.19
59043;BME280;44826;51.596;5.624;2023-04-10T03:18:51;101883.69;;;7.40;69.44
59043;BME280;44826;51.596;5.624;2023-04-10T03:21:16;101885.38;;;7.39;69.86
59043;BME280;44826;51.596;5.624;2023-04-10T03:23:42;101884.50;;;7.37;69.22
59043;BME280;44826;51.596;5.624;2023-04-10T03:26:07;101884.53;;;7.36;69.08
59043;BME280;44826;51.596;5.624;2023-04-10T03:28:33;101883.66;;;7.34;69.20
59043;BME280;44826;51.596;5.624;2023-04-10T03:31:00;101873.28;;;7.34;69.80
59043;BME280;44826;51.596;5.624;2023-04-10T03:33:26;101882.78;;;7.32;69.82
59043;BME280;44826;51.596;5.624;2023-04-10T03:35:51;101875.88;;;7.29;69.86
59043;BME280;44826;51.596;5.624;2023-04-10T03:38:17;101880.16;;;7.27;69.43
59043;BME280;44826;51.596;5.624;2023-04-10T03:40:43;101867.22;;;7.22;69.81
59043;BME280;44826;51.596;5.624;2023-04-10T03:43:08;101865.44;;;7.20;69.78
59043;BME280;44826;51.596;5.624;2023-04-10T03:45:33;101863.72;;;7.17;70.73
59043;BME280;44826;51.596;5.624;2023-04-10T03:47:59;101862.00;;;7.14;69.97
59043;BME280;44826;51.596;5.624;2023-04-10T03:50:24;101858.53;;;7.12;70.59
59043;BME280;44826;51.596;5.624;2023-04-10T03:52:50;101857.66;;;7.10;70.19
59043;BME280;44826;51.596;5.624;2023-04-10T03:55:15;101856.75;;;7.05;70.07
59043;BME280;44826;51.596;5.624;2023-04-10T03:57:44;101853.28;;;7.03;70.22
59043;BME280;44826;51.596;5.624;2023-04-10T04:00:10;101852.41;;;7.01;70.96
59043;BME280;44826;51.596;5.624;2023-04-10T04:02:36;101846.41;;;6.99;69.94
59043;BME280;44826;51.596;5.624;2023-04-10T04:05:01;101845.50;;;6.95;70.58
59043;BME280;44826;51.596;5.624;2023-04-10T04:07:26;101845.50;;;6.94;70.29
59043;BME280;44826;51.596;5.624;2023-04-10T04:09:51;101843.75;;;6.90;70.84
59043;BME280;44826;51.596;5.624;2023-04-10T04:12:17;101837.69;;;6.88;71.15
59043;BME280;44826;51.596;5.624;2023-04-10T04:14:42;101833.34;;;6.83;70.47
59043;BME280;44826;51.596;5.624;2023-04-10T04:17:08;101840.22;;;6.78;71.30
59043;BME280;44826;51.596;5.624;2023-04-10T04:19:34;101838.47;;;6.73;71.49
59043;BME280;44826;51.596;5.624;2023-04-10T04:21:59;101835.84;;;6.68;71.53
59043;BME280;44826;51.596;5.624;2023-04-10T04:24:25;101840.16;;;6.66;70.97
59043;BME280;44826;51.596;5.624;2023-04-10T04:26:50;101833.22;;;6.62;71.67
59043;BME280;44826;51.596;5.624;2023-04-10T04:29:15;101834.94;;;6.60;71.51
59043;BME280;44826;51.596;5.624;2023-04-10T04:31:40;101827.16;;;6.57;71.24
59043;BME280;44826;51.596;5.624;2023-04-10T04:34:06;101832.31;;;6.53;71.66
59043;BME280;44826;51.596;5.624;2023-04-10T04:36:31;101824.53;;;6.52;71.61
59043;BME280;44826;51.596;5.624;2023-04-10T04:38:56;101821.94;;;6.50;71.70
59043;BME280;44826;51.596;5.624;2023-04-10T04:41:21;101824.53;;;6.47;71.17
59043;BME280;44826;51.596;5.624;2023-04-10T04:43:47;101819.31;;;6.46;72.09
59043;BME280;44826;51.596;5.624;2023-04-10T04:46:13;101831.41;;;6.47;72.05
59043;BME280;44826;51.596;5.624;2023-04-10T04:48:38;101840.88;;;6.46;71.49
59043;BME280;44826;51.596;5.624;2023-04-10T04:51:06;101837.41;;;6.44;71.73
59043;BME280;44826;51.596;5.624;2023-04-10T04:53:32;101828.78;;;6.42;72.08
59043;BME280;44826;51.596;5.624;2023-04-10T04:55:57;101816.72;;;6.41;71.92
59043;BME280;44826;51.596;5.624;2023-04-10T04:58:22;101823.59;;;6.42;72.19
59043;BME280;44826;51.596;5.624;2023-04-10T05:00:50;101816.72;;;6.43;72.26
59043;BME280;44826;51.596;5.624;2023-04-10T05:03:15;101814.16;;;6.46;72.15
59043;BME280;44826;51.596;5.624;2023-04-10T05:05:41;101811.59;;;6.47;72.32
59043;BME280;44826;51.596;5.624;2023-04-10T05:08:06;101814.19;;;6.50;71.42
59043;BME280;44826;51.596;5.624;2023-04-10T05:10:31;101812.47;;;6.52;72.24
59043;BME280;44826;51.596;5.624;2023-04-10T05:12:57;101807.31;;;6.54;72.16
59043;BME280;44826;51.596;5.624;2023-04-10T05:15:22;101800.44;;;6.56;72.39
59043;BME280;44826;51.596;5.624;2023-04-10T05:17:48;101790.97;;;6.57;72.19
59043;BME280;44826;51.596;5.624;2023-04-10T05:20:15;101796.16;;;6.60;72.04
59043;BME280;44826;51.596;5.624;2023-04-10T05:22:40;101798.75;;;6.63;72.06
59043;BME280;44826;51.596;5.624;2023-04-10T05:25:06;101794.47;;;6.66;71.44
59043;BME280;44826;51.596;5.624;2023-04-10T05:27:31;101797.97;;;6.72;72.17
59043;BME280;44826;51.596;5.624;2023-04-10T05:29:56;101790.19;;;6.75;71.99
59043;BME280;44826;51.596;5.624;2023-04-10T05:32:22;101797.16;;;6.80;71.44
59043;BME280;44826;51.596;5.624;2023-04-10T05:34:47;101779.91;;;6.82;71.57
59043;BME280;44826;51.596;5.624;2023-04-10T05:37:12;101785.09;;;6.87;71.37
59043;BME280;44826;51.596;5.624;2023-04-10T05:39:37;101792.03;;;6.93;71.67
59043;BME280;44826;51.596;5.624;2023-04-10T05:42:03;101787.75;;;6.99;70.86
59043;BME280;44826;51.596;5.624;2023-04-10T05:44:29;101786.88;;;7.02;70.97
59043;BME280;44826;51.596;5.624;2023-04-10T05:46:54;101789.50;;;7.08;70.18
59043;BME280;44826;51.596;5.624;2023-04-10T05:49:20;101784.34;;;7.13;70.72
59043;BME280;44826;51.596;5.624;2023-04-10T05:51:45;101785.22;;;7.17;70.56
59043;BME280;44826;51.596;5.624;2023-04-10T05:54:17;101786.97;;;7.22;70.07
59043;BME280;44826;51.596;5.624;2023-04-10T05:56:42;101792.16;;;7.28;71.11
59043;BME280;44826;51.596;5.624;2023-04-10T05:59:07;101787.00;;;7.35;70.88
59043;BME280;44826;51.596;5.624;2023-04-10T06:01:33;101787.88;;;7.38;70.36
59043;BME280;44826;51.596;5.624;2023-04-10T06:03:58;101789.63;;;7.42;70.49
59043;BME280;44826;51.596;5.624;2023-04-10T06:06:24;101790.50;;;7.48;70.06
59043;BME280;44826;51.596;5.624;2023-04-10T06:08:50;101787.91;;;7.54;69.74
59043;BME280;44826;51.596;5.624;2023-04-10T06:11:15;101786.19;;;7.60;69.99
59043;BME280;44826;51.596;5.624;2023-04-10T06:13:41;101787.06;;;7.66;68.38
59043;BME280;44826;51.596;5.624;2023-04-10T06:16:06;101787.06;;;7.70;69.19
59043;BME280;44826;51.596;5.624;2023-04-10T06:18:32;101785.38;;;7.74;68.69
59043;BME280;44826;51.596;5.624;2023-04-10T06:20:57;101783.63;;;7.79;68.89
59043;BME280;44826;51.596;5.624;2023-04-10T06:23:25;101787.09;;;7.84;69.37
59043;BME280;44826;51.596;5.624;2023-04-10T06:25:51;101782.78;;;7.88;68.45
59043;BME280;44826;51.596;5.624;2023-04-10T06:28:17;101779.34;;;7.95;69.50
59043;BME280;44826;51.596;5.624;2023-04-10T06:30:42;101781.94;;;8.01;69.30
59043;BME280;44826;51.596;5.624;2023-04-10T06:33:07;101772.41;;;8.07;68.44
59043;BME280;44826;51.596;5.624;2023-04-10T06:35:33;101771.56;;;8.11;69.13
59043;BME280;44826;51.596;5.624;2023-04-10T06:37:58;101769.84;;;8.16;68.90
59043;BME280;44826;51.596;5.624;2023-04-10T06:40:23;101762.03;;;8.22;68.65
59043;BME280;44826;51.596;5.624;2023-04-10T06:42:49;101765.50;;;8.27;68.04
59043;BME280;44826;51.596;5.624;2023-04-10T06:45:14;101757.72;;;8.33;67.58
59043;BME280;44826;51.596;5.624;2023-04-10T06:47:40;101762.00;;;8.38;67.28
59043;BME280;44826;51.596;5.624;2023-04-10T06:50:05;101756.81;;;8.44;67.20
59043;BME280;44826;51.596;5.624;2023-04-10T06:52:31;101749.06;;;8.50;67.88
59043;BME280;44826;51.596;5.624;2023-04-10T06:54:56;101743.88;;;8.55;67.63
59043;BME280;44826;51.596;5.624;2023-04-10T06:57:22;101749.91;;;8.61;67.60
59043;BME280;44826;51.596;5.624;2023-04-10T06:59:47;101733.44;;;8.67;68.21
59043;BME280;44826;51.596;5.624;2023-04-10T07:02:12;101729.97;;;8.71;67.57
59043;BME280;44826;51.596;5.624;2023-04-10T07:04:37;101725.63;;;8.78;68.17
59043;BME280;44826;51.596;5.624;2023-04-10T07:07:03;101713.50;;;8.85;67.32
59043;BME280;44826;51.596;5.624;2023-04-10T07:09:29;101710.00;;;8.90;67.20
59043;BME280;44826;51.596;5.624;2023-04-10T07:11:55;101703.94;;;8.94;66.99
59043;BME280;44826;51.596;5.624;2023-04-10T07:14:20;101703.03;;;9.02;66.60
59043;BME280;44826;51.596;5.624;2023-04-10T07:16:45;101705.59;;;9.08;66.29
59043;BME280;44826;51.596;5.624;2023-04-10T07:19:11;101698.66;;;9.13;64.84
59043;BME280;44826;51.596;5.624;2023-04-10T07:21:36;101694.28;;;9.18;65.14
59043;BME280;44826;51.596;5.624;2023-04-10T07:24:02;101687.31;;;9.23;65.22
59043;BME280;44826;51.596;5.624;2023-04-10T07:26:27;101684.72;;;9.28;63.94
59043;BME280;44826;51.596;5.624;2023-04-10T07:28:52;101683.81;;;9.34;65.24
59043;BME280;44826;51.596;5.624;2023-04-10T07:31:17;101673.34;;;9.40;64.12
59043;BME280;44826;51.596;5.624;2023-04-10T07:33:44;101669.88;;;9.46;64.32
59043;BME280;44826;51.596;5.624;2023-04-10T07:36:11;101675.88;;;9.51;65.21
59043;BME280;44826;51.596;5.624;2023-04-10T07:38:36;101661.97;;;9.58;65.10
59043;BME280;44826;51.596;5.624;2023-04-10T07:41:03;101658.44;;;9.65;64.43
59043;BME280;44826;51.596;5.624;2023-04-10T07:43:28;101660.97;;;9.71;64.30
59043;BME280;44826;51.596;5.624;2023-04-10T07:45:54;101654.88;;;9.77;64.44
59043;BME280;44826;51.596;5.624;2023-04-10T07:48:20;101651.34;;;9.83;62.36
59043;BME280;44826;51.596;5.624;2023-04-10T07:50:45;101648.69;;;9.89;62.50
59043;BME280;44826;51.596;5.624;2023-04-10T07:53:10;101645.16;;;9.95;62.41
59043;BME280;44826;51.596;5.624;2023-04-10T07:55:40;101639.91;;;10.01;62.30
59043;BME280;44826;51.596;5.624;2023-04-10T07:58:06;101636.34;;;10.08;61.99
59043;BME280;44826;51.596;5.624;2023-04-10T08:00:32;101626.75;;;10.16;60.74
59043;BME280;44826;51.596;5.624;2023-04-10T08:02:57;101628.34;;;10.27;61.99
59043;BME280;44826;51.596;5.624;2023-04-10T08:05:22;101623.06;;;10.39;61.40
59043;BME280;44826;51.596;5.624;2023-04-10T08:07:48;101620.28;;;10.52;61.73
59043;BME280;44826;51.596;5.624;2023-04-10T08:10:13;101615.78;;;10.65;60.47
59043;BME280;44826;51.596;5.624;2023-04-10T08:12:38;101614.69;;;10.80;60.68
59043;BME280;44826;51.596;5.624;2023-04-10T08:15:04;101615.34;;;10.94;60.17
59043;BME280;44826;51.596;5.624;2023-04-10T08:17:30;101613.44;;;11.08;59.87
59043;BME280;44826;51.596;5.624;2023-04-10T08:19:55;101605.47;;;11.18;58.50
59043;BME280;44826;51.596;5.624;2023-04-10T08:22:21;101608.84;;;11.23;57.35
59043;BME280;44826;51.596;5.624;2023-04-10T08:24:46;101594.94;;;11.24;57.55
59043;BME280;44826;51.596;5.624;2023-04-10T08:27:11;101594.13;;;11.22;57.04
59043;BME280;44826;51.596;5.624;2023-04-10T08:29:37;101602.78;;;11.22;56.71
59043;BME280;44826;51.596;5.624;2023-04-10T08:32:03;101611.47;;;11.21;57.00
59043;BME280;44826;51.596;5.624;2023-04-10T08:34:28;101605.38;;;11.24;56.90
59043;BME280;44826;51.596;5.624;2023-04-10T08:36:53;101612.22;;;11.28;56.18
59043;BME280;44826;51.596;5.624;2023-04-10T08:39:19;101603.53;;;11.31;57.15
59043;BME280;44826;51.596;5.624;2023-04-10T08:41:44;101605.13;;;11.39;58.63
59043;BME280;44826;51.596;5.624;2023-04-10T08:44:10;101603.13;;;11.54;59.68
59043;BME280;44826;51.596;5.624;2023-04-10T08:46:35;101602.88;;;11.68;57.91
59043;BME280;44826;51.596;5.624;2023-04-10T08:49:05;101594.00;;;11.78;58.49
59043;BME280;44826;51.596;5.624;2023-04-10T08:51:38;101591.25;;;11.86;57.09
59043;BME280;44826;51.596;5.624;2023-04-10T08:54:10;101581.53;;;11.94;58.71
59043;BME280;44826;51.596;5.624;2023-04-10T08:56:40;101584.91;;;12.01;58.25
59043;BME280;44826;51.596;5.624;2023-04-10T08:59:07;101585.66;;;12.08;56.79
59043;BME280;44826;51.596;5.624;2023-04-10T09:01:33;101584.72;;;12.12;56.00
59043;BME280;44826;51.596;5.624;2023-04-10T09:03:59;101583.78;;;12.14;56.57
59043;BME280;44826;51.596;5.624;2023-04-10T09:06:25;101581.94;;;12.20;56.58
59043;BME280;44826;51.596;5.624;2023-04-10T09:08:51;101575.78;;;12.22;55.68
59043;BME280;44826;51.596;5.624;2023-04-10T09:11:16;101571.34;;;12.26;56.27
59043;BME280;44826;51.596;5.624;2023-04-10T09:13:43;101579.03;;;12.34;56.21
59043;BME280;44826;51.596;5.624;2023-04-10T09:16:10;101568.47;;;12.40;55.16
59043;BME280;44826;51.596;5.624;2023-04-10T09:18:44;101576.16;;;12.46;56.17
59043;BME280;44826;51.596;5.624;2023-04-10T09:21:11;101564.81;;;12.47;54.61
59043;BME280;44826;51.596;5.624;2023-04-10T09:23:36;101566.53;;;12.48;54.94
59043;BME280;44826;51.596;5.624;2023-04-10T09:26:13;101557.75;;;12.52;56.81
59043;BME280;44826;51.596;5.624;2023-04-10T09:29:06;101550.69;;;12.57;57.47
59043;BME280;44826;51.596;5.624;2023-04-10T09:31:33;101552.47;;;12.55;56.08
59043;BME280;44826;51.596;5.624;2023-04-10T09:34:10;101548.06;;;12.57;57.01
59043;BME280;44826;51.596;5.624;2023-04-10T09:36:37;101541.13;;;12.56;56.24
59043;BME280;44826;51.596;5.624;2023-04-10T09:39:05;101530.63;;;12.59;55.50
59043;BME280;44826;51.596;5.624;2023-04-10T09:41:31;101527.00;;;12.65;56.72
59043;BME280;44826;51.596;5.624;2023-04-10T09:44:08;101526.94;;;12.68;55.87
59043;BME280;44826;51.596;5.624;2023-04-10T09:46:33;101531.28;;;12.68;55.39
59043;BME280;44826;51.596;5.624;2023-04-10T09:48:59;101520.81;;;12.69;56.91
59043;BME280;44826;51.596;5.624;2023-04-10T09:51:35;101499.81;;;12.74;56.76
59043;BME280;44826;51.596;5.624;2023-04-10T09:54:02;101497.91;;;12.81;56.47
59043;BME280;44826;51.596;5.624;2023-04-10T09:56:28;101499.50;;;12.88;55.59
59043;BME280;44826;51.596;5.624;2023-04-10T09:58:57;101492.44;;;12.90;55.56
59043;BME280;44826;51.596;5.624;2023-04-10T10:01:25;101483.69;;;12.93;56.59
59043;BME280;44826;51.596;5.624;2023-04-10T10:03:53;101491.34;;;13.00;56.68
59043;BME280;44826;51.596;5.624;2023-04-10T10:06:19;101484.28;;;13.04;55.97
59043;BME280;44826;51.596;5.624;2023-04-10T10:08:45;101486.75;;;13.10;56.13
59043;BME280;44826;51.596;5.624;2023-04-10T10:11:12;101484.78;;;13.18;57.00
59043;BME280;44826;51.596;5.624;2023-04-10T10:13:45;101482.91;;;13.24;55.67
59043;BME280;44826;51.596;5.624;2023-04-10T10:16:33;101480.16;;;13.28;56.32
59043;BME280;44826;51.596;5.624;2023-04-10T10:19:16;101468.66;;;13.35;57.08
59043;BME280;44826;51.596;5.624;2023-04-10T10:21:45;101470.19;;;13.44;56.53
59043;BME280;44826;51.596;5.624;2023-04-10T10:24:12;101468.28;;;13.49;55.99
59043;BME280;44826;51.596;5.624;2023-04-10T10:26:38;101464.69;;;13.54;55.28
59043;BME280;44826;51.596;5.624;2023-04-10T10:29:06;101454.00;;;13.61;55.22
59043;BME280;44826;51.596;5.624;2023-04-10T10:31:35;101432.88;;;13.69;54.91
59043;BME280;44826;51.596;5.624;2023-04-10T10:34:01;101445.78;;;13.75;54.26
59043;BME280;44826;51.596;5.624;2023-04-10T10:36:30;101435.00;;;13.86;56.48
59043;BME280;44826;51.596;5.624;2023-04-10T10:42:14;101427.03;;;14.19;54.06
59043;BME280;44826;51.596;5.624;2023-04-10T10:44:53;101425.00;;;14.27;54.80
59043;BME280;44826;51.596;5.624;2023-04-10T10:47:23;101417.84;;;14.34;52.51
59043;BME280;44826;51.596;5.624;2023-04-10T10:49:56;101418.53;;;14.39;52.52
59043;BME280;44826;51.596;5.624;2023-04-10T10:57:48;101402.47;;;14.50;53.24
59043;BME280;44826;51.596;5.624;2023-04-10T11:00:14;101397.94;;;14.55;52.85
59043;BME280;44826;51.596;5.624;2023-04-10T11:02:40;101388.00;;;14.65;52.57
59043;BME280;44826;51.596;5.624;2023-04-10T11:05:05;101391.34;;;14.70;51.93
59043;BME280;44826;51.596;5.624;2023-04-10T11:13:26;101378.47;;;14.90;49.46
59043;BME280;44826;51.596;5.624;2023-04-10T11:15:51;101368.47;;;15.01;49.28
59043;BME280;44826;51.596;5.624;2023-04-10T11:18:17;101364.66;;;15.10;49.86
59043;BME280;44826;51.596;5.624;2023-04-10T11:21:11;101362.44;;;15.23;50.95
59043;BME280;44826;51.596;5.624;2023-04-10T11:28:58;101358.16;;;15.44;47.51
59043;BME280;44826;51.596;5.624;2023-04-10T11:31:23;101346.53;;;15.51;48.77
59043;BME280;44826;51.596;5.624;2023-04-10T11:34:09;101337.44;;;15.60;49.22
59043;BME280;44826;51.596;5.624;2023-04-10T11:36:39;101335.56;;;15.63;48.53
59043;BME280;44826;51.596;5.624;2023-04-10T11:41:39;101321.66;;;15.61;47.61
59043;BME280;44826;51.596;5.624;2023-04-10T11:44:09;101328.72;;;15.59;46.58
59043;BME280;44826;51.596;5.624;2023-04-10T11:46:43;101320.97;;;15.56;47.90
59043;BME280;44826;51.596;5.624;2023-04-10T11:49:11;101315.72;;;15.56;48.40
59043;BME280;44826;51.596;5.624;2023-04-10T11:51:37;101316.41;;;15.61;47.50
59043;BME280;44826;51.596;5.624;2023-04-10T11:54:08;101315.59;;;15.59;46.55
59043;BME280;44826;51.596;5.624;2023-04-10T11:56:34;101314.91;;;15.54;47.16
59043;BME280;44826;51.596;5.624;2023-04-10T11:59:00;101303.50;;;15.55;46.59
59043;BME280;44826;51.596;5.624;2023-04-10T12:01:27;101308.94;;;15.51;47.26
59043;BME280;44826;51.596;5.624;2023-04-10T12:03:52;101301.94;;;15.51;46.71
59043;BME280;44826;51.596;5.624;2023-04-10T12:06:17;101296.63;;;15.53;47.01
59043;BME280;44826;51.596;5.624;2023-04-10T12:08:45;101291.19;;;15.57;47.28
59043;BME280;44826;51.596;5.624;2023-04-10T12:11:17;101292.78;;;15.61;46.62
59043;BME280;44826;51.596;5.624;2023-04-10T12:13:44;101291.88;;;15.62;47.63
59043;BME280;44826;51.596;5.624;2023-04-10T12:16:10;101291.50;;;15.72;48.63
59043;BME280;44826;51.596;5.624;2023-04-10T12:18:36;101280.56;;;15.83;49.21
59043;BME280;44826;51.596;5.624;2023-04-10T12:21:03;101270.78;;;15.88;47.15
59043;BME280;44826;51.596;5.624;2023-04-10T12:23:29;101263.63;;;15.91;46.79
59043;BME280;44826;51.596;5.624;2023-04-10T12:26:12;101273.34;;;15.89;47.45
59043;BME280;44826;51.596;5.624;2023-04-10T12:28:39;101264.56;;;15.90;47.19
59043;BME280;44826;51.596;5.624;2023-04-10T12:31:05;101269.44;;;16.00;47.31
59043;BME280;44826;51.596;5.624;2023-04-10T12:33:31;101258.53;;;16.09;46.76
59043;BME280;44826;51.596;5.624;2023-04-10T12:35:56;101251.31;;;16.14;46.21
59043;BME280;44826;51.596;5.624;2023-04-10T12:38:41;101242.41;;;16.18;47.03
59043;BME280;44826;51.596;5.624;2023-04-10T12:41:08;101258.03;;;16.21;46.01
59043;BME280;44826;51.596;5.624;2023-04-10T12:43:40;101237.19;;;16.17;47.53
59043;BME280;44826;51.596;5.624;2023-04-10T12:46:08;101246.06;;;16.14;46.20
59043;BME280;44826;51.596;5.624;2023-04-10T12:48:34;101230.72;;;16.05;46.52
59043;BME280;44826;51.596;5.624;2023-04-10T12:51:00;101228.28;;;16.00;46.18
59043;BME280;44826;51.596;5.624;2023-04-10T12:53:25;101232.81;;;15.97;46.19
59043;BME280;44826;51.596;5.624;2023-04-10T12:56:02;101217.47;;;15.87;45.93
59043;BME280;44826;51.596;5.624;2023-04-10T12:58:29;101220.38;;;15.80;45.50
59043;BME280;44826;51.596;5.624;2023-04-10T13:01:02;101215.50;;;15.70;46.69
59043;BME280;44826;51.596;5.624;2023-04-10T13:03:28;101216.75;;;15.61;46.61
59043;BME280;44826;51.596;5.624;2023-04-10T13:05:53;101208.19;;;15.56;46.25
59043;BME280;44826;51.596;5.624;2023-04-10T13:08:19;101208.34;;;15.53;46.60
59043;BME280;44826;51.596;5.624;2023-04-10T13:10:45;101207.66;;;15.48;46.85
59043;BME280;44826;51.596;5.624;2023-04-10T13:13:11;101203.56;;;15.41;46.84
59043;BME280;44826;51.596;5.624;2023-04-10T13:15:37;101194.06;;;15.38;47.29
59043;BME280;44826;51.596;5.624;2023-04-10T13:18:03;101191.66;;;15.33;46.77
59043;BME280;44826;51.596;5.624;2023-04-10T13:20:31;101183.00;;;15.31;48.51
59043;BME280;44826;51.596;5.624;2023-04-10T13:22:57;101185.59;;;15.31;47.54
59043;BME280;44826;51.596;5.624;2023-04-10T13:25:23;101176.88;;;15.31;48.26
59043;BME280;44826;51.596;5.624;2023-04-10T13:27:48;101161.09;;;15.32;47.15
59043;BME280;44826;51.596;5.624;2023-04-10T13:30:13;101168.22;;;15.29;47.39